sensor_id;sensor_type;location;lat;lon;timestamp;P1;durP1;ratioP1;P2;durP2;ratioP2
13321;SDS011;6730;46.248;6.930;2022-08-03T00:01:36;2.70;;;1.98;;
13321;SDS011;6730;46.248;6.930;2022-08-03T00:04:07;2.85;;;2.20;;
13321;SDS011;6730;46.248;6.930;2022-08-03T00:06:34;3.08;;;2.00;;
13321;SDS011;6730;46.248;6.930;2022-08-03T00:09:00;2.42;;;2.00;;
13321;SDS011;6730;46.248;6.930;2022-08-03T00:11:26;2.13;;;1.92;;
13321;SDS011;6730;46.248;6.930;2022-08-03T00:13:52;2.28;;;1.83;;
13321;SDS011;6730;46.248;6.930;2022-08-03T00:16:18;1.88;;;1.75;;
13321;SDS011;6730;46.248;6.930;2022-08-03T00:18:44;2.33;;;1.85;;
13321;SDS011;6730;46.248;6.930;2022-08-03T00:21:13;2.28;;;1.92;;
13321;SDS011;6730;46.248;6.930;2022-08-03T00:23:39;2.17;;;1.98;;
13321;SDS011;6730;46.248;6.930;2022-08-03T00:26:05;1.92;;;1.83;;
13321;SDS011;6730;46.248;6.930;2022-08-03T00:28:31;3.45;;;1.65;;
13321;SDS011;6730;46.248;6.930;2022-08-03T00:30:57;2.30;;;2.00;;
13321;SDS011;6730;46.248;6.930;2022-08-03T00:33:22;3.45;;;2.00;;
13321;SDS011;6730;46.248;6.930;2022-08-03T00:35:48;4.90;;;1.67;;
13321;SDS011;6730;46.248;6.930;2022-08-03T00:38:14;2.20;;;2.00;;
13321;SDS011;6730;46.248;6.930;2022-08-03T00:40:39;4.55;;;2.15;;
13321;SDS011;6730;46.248;6.930;2022-08-03T00:43:06;2.50;;;1.90;;
13321;SDS011;6730;46.248;6.930;2022-08-03T00:45:38;2.47;;;1.80;;
13321;SDS011;6730;46.248;6.930;2022-08-03T00:48:06;2.00;;;1.85;;
13321;SDS011;6730;46.248;6.930;2022-08-03T00:50:35;4.82;;;1.75;;
13321;SDS011;6730;46.248;6.930;2022-08-03T00:53:04;3.63;;;2.20;;
13321;SDS011;6730;46.248;6.930;2022-08-03T00:55:31;2.60;;;2.08;;
13321;SDS011;6730;46.248;6.930;2022-08-03T00:57:58;2.38;;;2.17;;
13321;SDS011;6730;46.248;6.930;2022-08-03T01:00:29;1.77;;;1.67;;
13321;SDS011;6730;46.248;6.930;2022-08-03T01:02:54;1.98;;;1.88;;
13321;SDS011;6730;46.248;6.930;2022-08-03T01:05:20;3.78;;;1.90;;
13321;SDS011;6730;46.248;6.930;2022-08-03T01:10:38;1.98;;;1.85;;
13321;SDS011;6730;46.248;6.930;2022-08-03T01:18:57;2.25;;;1.95;;
13321;SDS011;6730;46.248;6.930;2022-08-03T01:24:35;2.30;;;2.10;;
13321;SDS011;6730;46.248;6.930;2022-08-03T01:27:17;2.03;;;1.83;;
13321;SDS011;6730;46.248;6.930;2022-08-03T01:30:01;2.70;;;1.92;;
13321;SDS011;6730;46.248;6.930;2022-08-03T01:35:24;1.95;;;1.85;;
13321;SDS011;6730;46.248;6.930;2022-08-03T01:37:55;4.10;;;1.95;;
13321;SDS011;6730;46.248;6.930;2022-08-03T01:40:25;2.53;;;2.17;;
13321;SDS011;6730;46.248;6.930;2022-08-03T01:42:53;2.20;;;2.10;;
13321;SDS011;6730;46.248;6.930;2022-08-03T01:45:21;3.25;;;1.92;;
13321;SDS011;6730;46.248;6.930;2022-08-03T01:47:48;1.90;;;1.80;;
13321;SDS011;6730;46.248;6.930;2022-08-03T01:50:16;2.22;;;1.80;;
13321;SDS011;6730;46.248;6.930;2022-08-03T01:52:45;1.90;;;1.80;;
13321;SDS011;6730;46.248;6.930;2022-08-03T01:55:12;2.33;;;2.13;;
13321;SDS011;6730;46.248;6.930;2022-08-03T01:57:41;2.05;;;1.92;;
13321;SDS011;6730;46.248;6.930;2022-08-03T02:00:08;2.60;;;1.98;;
13321;SDS011;6730;46.248;6.930;2022-08-03T02:02:37;4.05;;;2.15;;
13321;SDS011;6730;46.248;6.930;2022-08-03T02:05:05;3.30;;;2.10;;
13321;SDS011;6730;46.248;6.930;2022-08-03T02:07:33;2.22;;;1.90;;
13321;SDS011;6730;46.248;6.930;2022-08-03T02:10:03;2.00;;;1.73;;
13321;SDS011;6730;46.248;6.930;2022-08-03T02:12:30;1.90;;;1.80;;
13321;SDS011;6730;46.248;6.930;2022-08-03T02:14:57;2.28;;;2.08;;
13321;SDS011;6730;46.248;6.930;2022-08-03T02:17:24;2.30;;;2.15;;
13321;SDS011;6730;46.248;6.930;2022-08-03T02:19:52;2.70;;;1.95;;
13321;SDS011;6730;46.248;6.930;2022-08-03T02:22:20;2.05;;;1.95;;
13321;SDS011;6730;46.248;6.930;2022-08-03T02:24:47;2.00;;;1.80;;
13321;SDS011;6730;46.248;6.930;2022-08-03T02:27:16;1.80;;;1.70;;
13321;SDS011;6730;46.248;6.930;2022-08-03T02:29:48;2.28;;;2.08;;
13321;SDS011;6730;46.248;6.930;2022-08-03T02:32:20;2.13;;;1.95;;
13321;SDS011;6730;46.248;6.930;2022-08-03T02:34:53;1.98;;;1.77;;
13321;SDS011;6730;46.248;6.930;2022-08-03T02:37:24;4.22;;;2.22;;
13321;SDS011;6730;46.248;6.930;2022-08-03T02:39:51;2.63;;;2.05;;
13321;SDS011;6730;46.248;6.930;2022-08-03T02:42:26;1.90;;;1.80;;
13321;SDS011;6730;46.248;6.930;2022-08-03T02:44:54;2.42;;;2.08;;
13321;SDS011;6730;46.248;6.930;2022-08-03T02:47:22;2.33;;;2.13;;
13321;SDS011;6730;46.248;6.930;2022-08-03T02:49:51;3.30;;;2.15;;
13321;SDS011;6730;46.248;6.930;2022-08-03T02:52:20;2.15;;;2.03;;
13321;SDS011;6730;46.248;6.930;2022-08-03T02:54:50;2.97;;;2.00;;
13321;SDS011;6730;46.248;6.930;2022-08-03T02:57:17;2.10;;;1.85;;
13321;SDS011;6730;46.248;6.930;2022-08-03T02:59:44;2.20;;;2.00;;
13321;SDS011;6730;46.248;6.930;2022-08-03T03:02:14;1.88;;;1.77;;
13321;SDS011;6730;46.248;6.930;2022-08-03T03:04:42;4.07;;;2.20;;
13321;SDS011;6730;46.248;6.930;2022-08-03T03:07:10;2.03;;;1.83;;
13321;SDS011;6730;46.248;6.930;2022-08-03T03:09:40;2.78;;;2.28;;
13321;SDS011;6730;46.248;6.930;2022-08-03T03:12:07;2.47;;;2.10;;
13321;SDS011;6730;46.248;6.930;2022-08-03T03:14:35;2.55;;;2.35;;
13321;SDS011;6730;46.248;6.930;2022-08-03T03:17:01;2.22;;;2.03;;
13321;SDS011;6730;46.248;6.930;2022-08-03T03:19:28;2.05;;;1.85;;
13321;SDS011;6730;46.248;6.930;2022-08-03T03:21:55;2.40;;;2.13;;
13321;SDS011;6730;46.248;6.930;2022-08-03T03:24:25;2.25;;;2.05;;
13321;SDS011;6730;46.248;6.930;2022-08-03T03:26:53;2.90;;;2.20;;
13321;SDS011;6730;46.248;6.930;2022-08-03T03:29:19;2.33;;;2.13;;
13321;SDS011;6730;46.248;6.930;2022-08-03T03:31:45;3.85;;;2.25;;
13321;SDS011;6730;46.248;6.930;2022-08-03T03:34:11;2.30;;;2.00;;
13321;SDS011;6730;46.248;6.930;2022-08-03T03:36:37;2.25;;;2.05;;
13321;SDS011;6730;46.248;6.930;2022-08-03T03:39:03;2.10;;;1.90;;
13321;SDS011;6730;46.248;6.930;2022-08-03T03:41:29;2.22;;;2.03;;
13321;SDS011;6730;46.248;6.930;2022-08-03T03:43:55;2.53;;;2.10;;
13321;SDS011;6730;46.248;6.930;2022-08-03T03:46:21;2.33;;;1.98;;
13321;SDS011;6730;46.248;6.930;2022-08-03T03:48:47;2.30;;;1.98;;
13321;SDS011;6730;46.248;6.930;2022-08-03T03:51:13;1.90;;;1.80;;
13321;SDS011;6730;46.248;6.930;2022-08-03T03:53:39;2.42;;;2.22;;
13321;SDS011;6730;46.248;6.930;2022-08-03T03:56:06;2.00;;;1.80;;
13321;SDS011;6730;46.248;6.930;2022-08-03T03:58:32;3.83;;;2.17;;
13321;SDS011;6730;46.248;6.930;2022-08-03T04:00:58;2.30;;;2.10;;
13321;SDS011;6730;46.248;6.930;2022-08-03T04:03:24;1.90;;;1.80;;
13321;SDS011;6730;46.248;6.930;2022-08-03T04:05:49;4.07;;;2.00;;
13321;SDS011;6730;46.248;6.930;2022-08-03T04:08:34;2.22;;;1.85;;
13321;SDS011;6730;46.248;6.930;2022-08-03T04:11:19;1.80;;;1.70;;
13321;SDS011;6730;46.248;6.930;2022-08-03T04:16:40;2.35;;;2.17;;
13321;SDS011;6730;46.248;6.930;2022-08-03T04:19:16;2.28;;;2.08;;
13321;SDS011;6730;46.248;6.930;2022-08-03T04:21:47;2.72;;;2.17;;
13321;SDS011;6730;46.248;6.930;2022-08-03T04:24:15;2.40;;;2.20;;
13321;SDS011;6730;46.248;6.930;2022-08-03T04:26:44;2.17;;;1.98;;
13321;SDS011;6730;46.248;6.930;2022-08-03T04:29:11;2.25;;;2.10;;
13321;SDS011;6730;46.248;6.930;2022-08-03T04:31:38;3.35;;;2.13;;
13321;SDS011;6730;46.248;6.930;2022-08-03T04:34:05;2.13;;;1.92;;
13321;SDS011;6730;46.248;6.930;2022-08-03T04:36:32;2.22;;;2.03;;
13321;SDS011;6730;46.248;6.930;2022-08-03T04:39:11;2.33;;;2.13;;
13321;SDS011;6730;46.248;6.930;2022-08-03T04:41:40;2.20;;;2.00;;
13321;SDS011;6730;46.248;6.930;2022-08-03T04:44:08;4.03;;;1.98;;
13321;SDS011;6730;46.248;6.930;2022-08-03T04:46:36;2.22;;;2.03;;
13321;SDS011;6730;46.248;6.930;2022-08-03T04:49:04;2.00;;;1.90;;
13321;SDS011;6730;46.248;6.930;2022-08-03T04:51:31;2.05;;;1.95;;
13321;SDS011;6730;46.248;6.930;2022-08-03T04:53:58;2.08;;;1.88;;
13321;SDS011;6730;46.248;6.930;2022-08-03T04:56:24;2.17;;;1.98;;
13321;SDS011;6730;46.248;6.930;2022-08-03T04:58:50;2.90;;;2.40;;
13321;SDS011;6730;46.248;6.930;2022-08-03T05:01:16;2.30;;;2.10;;
13321;SDS011;6730;46.248;6.930;2022-08-03T05:03:44;2.33;;;2.00;;
13321;SDS011;6730;46.248;6.930;2022-08-03T05:06:13;3.00;;;2.13;;
13321;SDS011;6730;46.248;6.930;2022-08-03T05:08:38;2.15;;;1.98;;
13321;SDS011;6730;46.248;6.930;2022-08-03T05:11:04;2.53;;;2.33;;
13321;SDS011;6730;46.248;6.930;2022-08-03T05:13:30;2.17;;;1.98;;
13321;SDS011;6730;46.248;6.930;2022-08-03T05:15:55;3.30;;;2.15;;
13321;SDS011;6730;46.248;6.930;2022-08-03T05:18:21;2.72;;;2.08;;
13321;SDS011;6730;46.248;6.930;2022-08-03T05:20:47;2.40;;;2.17;;
13321;SDS011;6730;46.248;6.930;2022-08-03T05:23:13;3.03;;;2.42;;
13321;SDS011;6730;46.248;6.930;2022-08-03T05:25:39;4.05;;;2.30;;
13321;SDS011;6730;46.248;6.930;2022-08-03T05:28:06;2.90;;;2.20;;
13321;SDS011;6730;46.248;6.930;2022-08-03T05:30:32;2.28;;;2.08;;
13321;SDS011;6730;46.248;6.930;2022-08-03T05:32:57;4.85;;;2.50;;
13321;SDS011;6730;46.248;6.930;2022-08-03T05:35:24;2.80;;;2.50;;
13321;SDS011;6730;46.248;6.930;2022-08-03T05:37:50;2.63;;;2.20;;
13321;SDS011;6730;46.248;6.930;2022-08-03T05:40:15;2.47;;;2.08;;
13321;SDS011;6730;46.248;6.930;2022-08-03T05:42:41;4.22;;;2.30;;
13321;SDS011;6730;46.248;6.930;2022-08-03T05:45:07;2.50;;;2.30;;
13321;SDS011;6730;46.248;6.930;2022-08-03T05:47:40;3.22;;;2.10;;
13321;SDS011;6730;46.248;6.930;2022-08-03T05:50:08;2.35;;;2.15;;
13321;SDS011;6730;46.248;6.930;2022-08-03T05:52:37;2.83;;;2.20;;
13321;SDS011;6730;46.248;6.930;2022-08-03T05:55:04;3.20;;;2.38;;
13321;SDS011;6730;46.248;6.930;2022-08-03T05:57:30;2.85;;;2.17;;
13321;SDS011;6730;46.248;6.930;2022-08-03T05:59:56;2.47;;;2.22;;
13321;SDS011;6730;46.248;6.930;2022-08-03T06:02:22;2.50;;;2.30;;
13321;SDS011;6730;46.248;6.930;2022-08-03T06:04:47;3.80;;;2.20;;
13321;SDS011;6730;46.248;6.930;2022-08-03T06:07:13;3.35;;;2.65;;
13321;SDS011;6730;46.248;6.930;2022-08-03T06:09:38;2.95;;;2.35;;
13321;SDS011;6730;46.248;6.930;2022-08-03T06:12:05;3.17;;;2.88;;
13321;SDS011;6730;46.248;6.930;2022-08-03T06:14:31;2.38;;;2.17;;
13321;SDS011;6730;46.248;6.930;2022-08-03T06:16:57;2.50;;;2.30;;
13321;SDS011;6730;46.248;6.930;2022-08-03T06:19:23;3.63;;;2.40;;
13321;SDS011;6730;46.248;6.930;2022-08-03T06:21:49;3.38;;;2.70;;
13321;SDS011;6730;46.248;6.930;2022-08-03T06:24:15;2.45;;;2.25;;
13321;SDS011;6730;46.248;6.930;2022-08-03T06:26:41;3.58;;;2.30;;
13321;SDS011;6730;46.248;6.930;2022-08-03T06:29:06;2.50;;;2.15;;
13321;SDS011;6730;46.248;6.930;2022-08-03T06:31:32;2.60;;;2.40;;
13321;SDS011;6730;46.248;6.930;2022-08-03T06:33:58;3.65;;;2.72;;
13321;SDS011;6730;46.248;6.930;2022-08-03T06:36:24;2.50;;;2.30;;
13321;SDS011;6730;46.248;6.930;2022-08-03T06:38:55;2.47;;;2.28;;
13321;SDS011;6730;46.248;6.930;2022-08-03T06:41:22;2.40;;;2.20;;
13321;SDS011;6730;46.248;6.930;2022-08-03T06:43:47;2.45;;;2.25;;
13321;SDS011;6730;46.248;6.930;2022-08-03T06:46:13;2.63;;;2.38;;
13321;SDS011;6730;46.248;6.930;2022-08-03T06:48:40;2.60;;;2.40;;
13321;SDS011;6730;46.248;6.930;2022-08-03T06:51:06;2.80;;;2.58;;
13321;SDS011;6730;46.248;6.930;2022-08-03T06:53:32;3.70;;;2.58;;
13321;SDS011;6730;46.248;6.930;2022-08-03T06:55:57;2.30;;;2.10;;
13321;SDS011;6730;46.248;6.930;2022-08-03T06:58:23;2.55;;;2.35;;
13321;SDS011;6730;46.248;6.930;2022-08-03T07:00:49;3.10;;;2.80;;
13321;SDS011;6730;46.248;6.930;2022-08-03T07:03:14;4.25;;;3.03;;
13321;SDS011;6730;46.248;6.930;2022-08-03T07:05:41;3.25;;;2.83;;
13321;SDS011;6730;46.248;6.930;2022-08-03T07:08:08;3.33;;;3.03;;
13321;SDS011;6730;46.248;6.930;2022-08-03T07:10:33;3.00;;;2.40;;
13321;SDS011;6730;46.248;6.930;2022-08-03T07:13:00;2.70;;;2.47;;
13321;SDS011;6730;46.248;6.930;2022-08-03T07:15:25;3.40;;;2.97;;
13321;SDS011;6730;46.248;6.930;2022-08-03T07:17:51;3.10;;;2.90;;
13321;SDS011;6730;46.248;6.930;2022-08-03T07:20:17;6.05;;;3.20;;
13321;SDS011;6730;46.248;6.930;2022-08-03T07:22:43;2.95;;;2.70;;
13321;SDS011;6730;46.248;6.930;2022-08-03T07:25:09;2.95;;;2.70;;
13321;SDS011;6730;46.248;6.930;2022-08-03T07:27:35;3.15;;;2.65;;
13321;SDS011;6730;46.248;6.930;2022-08-03T07:30:04;3.30;;;3.00;;
13321;SDS011;6730;46.248;6.930;2022-08-03T07:32:30;3.42;;;2.63;;
13321;SDS011;6730;46.248;6.930;2022-08-03T07:34:56;4.25;;;2.60;;
13321;SDS011;6730;46.248;6.930;2022-08-03T07:37:21;3.30;;;2.90;;
13321;SDS011;6730;46.248;6.930;2022-08-03T07:39:47;2.92;;;2.67;;
13321;SDS011;6730;46.248;6.930;2022-08-03T07:42:13;4.78;;;3.08;;
13321;SDS011;6730;46.248;6.930;2022-08-03T07:44:38;4.28;;;3.13;;
13321;SDS011;6730;46.248;6.930;2022-08-03T07:47:04;3.15;;;2.75;;
13321;SDS011;6730;46.248;6.930;2022-08-03T07:49:30;4.50;;;3.28;;
13321;SDS011;6730;46.248;6.930;2022-08-03T07:51:56;3.50;;;3.20;;
13321;SDS011;6730;46.248;6.930;2022-08-03T07:54:40;4.85;;;2.88;;
13321;SDS011;6730;46.248;6.930;2022-08-03T07:57:06;3.58;;;3.00;;
13321;SDS011;6730;46.248;6.930;2022-08-03T07:59:32;5.10;;;3.00;;
13321;SDS011;6730;46.248;6.930;2022-08-03T08:01:59;11.38;;;3.20;;
13321;SDS011;6730;46.248;6.930;2022-08-03T08:04:24;6.18;;;2.80;;
13321;SDS011;6730;46.248;6.930;2022-08-03T08:06:50;3.60;;;3.30;;
13321;SDS011;6730;46.248;6.930;2022-08-03T08:09:16;4.65;;;3.38;;
13321;SDS011;6730;46.248;6.930;2022-08-03T08:11:42;5.07;;;3.20;;
13321;SDS011;6730;46.248;6.930;2022-08-03T08:14:07;3.28;;;2.92;;
13321;SDS011;6730;46.248;6.930;2022-08-03T08:16:33;3.70;;;3.20;;
13321;SDS011;6730;46.248;6.930;2022-08-03T08:18:59;3.58;;;3.28;;
13321;SDS011;6730;46.248;6.930;2022-08-03T08:21:26;3.63;;;2.85;;
13321;SDS011;6730;46.248;6.930;2022-08-03T08:23:52;4.82;;;3.65;;
13321;SDS011;6730;46.248;6.930;2022-08-03T08:26:17;3.60;;;3.03;;
13321;SDS011;6730;46.248;6.930;2022-08-03T08:28:43;4.75;;;3.20;;
13321;SDS011;6730;46.248;6.930;2022-08-03T08:31:09;3.60;;;3.30;;
13321;SDS011;6730;46.248;6.930;2022-08-03T08:33:34;3.08;;;2.78;;
13321;SDS011;6730;46.248;6.930;2022-08-03T08:36:00;3.40;;;3.20;;
13321;SDS011;6730;46.248;6.930;2022-08-03T08:38:26;3.63;;;3.33;;
13321;SDS011;6730;46.248;6.930;2022-08-03T08:40:54;3.83;;;3.40;;
13321;SDS011;6730;46.248;6.930;2022-08-03T08:43:20;5.72;;;3.53;;
13321;SDS011;6730;46.248;6.930;2022-08-03T08:45:47;3.45;;;3.15;;
13321;SDS011;6730;46.248;6.930;2022-08-03T08:48:16;3.90;;;3.55;;
13321;SDS011;6730;46.248;6.930;2022-08-03T08:50:46;3.45;;;3.15;;
13321;SDS011;6730;46.248;6.930;2022-08-03T08:53:13;4.40;;;3.53;;
13321;SDS011;6730;46.248;6.930;2022-08-03T08:55:41;3.38;;;3.08;;
13321;SDS011;6730;46.248;6.930;2022-08-03T08:58:10;3.78;;;3.47;;
13321;SDS011;6730;46.248;6.930;2022-08-03T09:00:37;3.40;;;3.10;;
13321;SDS011;6730;46.248;6.930;2022-08-03T09:03:02;3.55;;;3.25;;
13321;SDS011;6730;46.248;6.930;2022-08-03T09:05:28;3.60;;;3.30;;
13321;SDS011;6730;46.248;6.930;2022-08-03T09:07:57;6.75;;;3.17;;
13321;SDS011;6730;46.248;6.930;2022-08-03T09:10:23;3.60;;;3.30;;
13321;SDS011;6730;46.248;6.930;2022-08-03T09:12:49;3.70;;;3.20;;
13321;SDS011;6730;46.248;6.930;2022-08-03T09:17:46;4.85;;;2.90;;
13321;SDS011;6730;46.248;6.930;2022-08-03T09:20:13;4.60;;;3.08;;
13321;SDS011;6730;46.248;6.930;2022-08-03T09:22:55;3.58;;;3.28;;
13321;SDS011;6730;46.248;6.930;2022-08-03T09:25:41;3.70;;;3.40;;
13321;SDS011;6730;46.248;6.930;2022-08-03T09:28:10;3.92;;;3.10;;
13321;SDS011;6730;46.248;6.930;2022-08-03T09:30:40;3.42;;;3.13;;
13321;SDS011;6730;46.248;6.930;2022-08-03T09:33:11;7.47;;;3.30;;
13321;SDS011;6730;46.248;6.930;2022-08-03T09:35:44;3.50;;;3.25;;
13321;SDS011;6730;46.248;6.930;2022-08-03T09:38:11;6.07;;;3.22;;
13321;SDS011;6730;46.248;6.930;2022-08-03T09:40:37;3.38;;;3.08;;
13321;SDS011;6730;46.248;6.930;2022-08-03T09:43:04;3.30;;;3.00;;
13321;SDS011;6730;46.248;6.930;2022-08-03T09:45:32;3.65;;;3.35;;
13321;SDS011;6730;46.248;6.930;2022-08-03T09:50:59;3.95;;;3.10;;
13321;SDS011;6730;46.248;6.930;2022-08-03T09:53:27;3.40;;;3.05;;
13321;SDS011;6730;46.248;6.930;2022-08-03T09:58:21;4.15;;;3.20;;
13321;SDS011;6730;46.248;6.930;2022-08-03T10:03:25;6.38;;;3.22;;
13321;SDS011;6730;46.248;6.930;2022-08-03T10:05:52;3.15;;;2.95;;
13321;SDS011;6730;46.248;6.930;2022-08-03T10:08:19;6.03;;;3.38;;
13321;SDS011;6730;46.248;6.930;2022-08-03T10:10:46;2.95;;;2.72;;
13321;SDS011;6730;46.248;6.930;2022-08-03T10:13:14;3.45;;;3.10;;
13321;SDS011;6730;46.248;6.930;2022-08-03T10:15:41;6.03;;;3.28;;
13321;SDS011;6730;46.248;6.930;2022-08-03T10:18:07;4.38;;;3.03;;
13321;SDS011;6730;46.248;6.930;2022-08-03T10:23:17;5.78;;;3.10;;
13321;SDS011;6730;46.248;6.930;2022-08-03T10:25:46;2.95;;;2.75;;
13321;SDS011;6730;46.248;6.930;2022-08-03T10:28:17;6.30;;;2.78;;
13321;SDS011;6730;46.248;6.930;2022-08-03T10:30:47;3.00;;;2.80;;
13321;SDS011;6730;46.248;6.930;2022-08-03T10:33:23;4.00;;;3.15;;
13321;SDS011;6730;46.248;6.930;2022-08-03T10:35:53;3.25;;;2.95;;
13321;SDS011;6730;46.248;6.930;2022-08-03T10:38:43;2.90;;;2.70;;
13321;SDS011;6730;46.248;6.930;2022-08-03T10:41:10;4.22;;;2.90;;
13321;SDS011;6730;46.248;6.930;2022-08-03T10:43:41;3.25;;;2.95;;
13321;SDS011;6730;46.248;6.930;2022-08-03T10:46:26;5.95;;;2.58;;
13321;SDS011;6730;46.248;6.930;2022-08-03T10:48:53;4.05;;;2.88;;
13321;SDS011;6730;46.248;6.930;2022-08-03T10:51:20;3.13;;;2.92;;
13321;SDS011;6730;46.248;6.930;2022-08-03T10:53:48;3.05;;;2.60;;
13321;SDS011;6730;46.248;6.930;2022-08-03T10:59:19;2.63;;;2.42;;
13321;SDS011;6730;46.248;6.930;2022-08-03T11:02:10;3.45;;;2.70;;
13321;SDS011;6730;46.248;6.930;2022-08-03T11:04:38;2.97;;;2.78;;
13321;SDS011;6730;46.248;6.930;2022-08-03T11:07:20;3.13;;;2.40;;
13321;SDS011;6730;46.248;6.930;2022-08-03T11:09:51;2.67;;;2.47;;
13321;SDS011;6730;46.248;6.930;2022-08-03T11:14:52;3.15;;;2.67;;
13321;SDS011;6730;46.248;6.930;2022-08-03T11:17:19;2.75;;;2.47;;
13321;SDS011;6730;46.248;6.930;2022-08-03T11:19:46;3.28;;;2.78;;
13321;SDS011;6730;46.248;6.930;2022-08-03T11:22:12;2.80;;;2.60;;
13321;SDS011;6730;46.248;6.930;2022-08-03T11:29:57;3.10;;;2.80;;
13321;SDS011;6730;46.248;6.930;2022-08-03T11:35:15;2.72;;;2.53;;
13321;SDS011;6730;46.248;6.930;2022-08-03T11:40:46;2.88;;;2.67;;
13321;SDS011;6730;46.248;6.930;2022-08-03T11:45:55;2.85;;;2.65;;
13321;SDS011;6730;46.248;6.930;2022-08-03T11:48:27;2.83;;;2.60;;
13321;SDS011;6730;46.248;6.930;2022-08-03T11:50:58;3.25;;;2.97;;
13321;SDS011;6730;46.248;6.930;2022-08-03T11:53:28;3.30;;;2.28;;
13321;SDS011;6730;46.248;6.930;2022-08-03T11:55:57;2.50;;;2.30;;
13321;SDS011;6730;46.248;6.930;2022-08-03T11:58:24;2.70;;;2.50;;
13321;SDS011;6730;46.248;6.930;2022-08-03T12:00:50;2.70;;;2.40;;
13321;SDS011;6730;46.248;6.930;2022-08-03T12:03:17;2.65;;;2.45;;
13321;SDS011;6730;46.248;6.930;2022-08-03T12:08:28;3.67;;;2.60;;
13321;SDS011;6730;46.248;6.930;2022-08-03T12:10:59;2.88;;;2.67;;
13321;SDS011;6730;46.248;6.930;2022-08-03T12:13:34;3.10;;;2.90;;
13321;SDS011;6730;46.248;6.930;2022-08-03T12:16:21;3.10;;;2.80;;
13321;SDS011;6730;46.248;6.930;2022-08-03T12:19:04;2.88;;;2.67;;
13321;SDS011;6730;46.248;6.930;2022-08-03T12:21:33;2.75;;;2.50;;
13321;SDS011;6730;46.248;6.930;2022-08-03T12:24:03;3.08;;;2.75;;
13321;SDS011;6730;46.248;6.930;2022-08-03T12:26:30;3.78;;;2.80;;
13321;SDS011;6730;46.248;6.930;2022-08-03T12:29:17;2.40;;;2.20;;
13321;SDS011;6730;46.248;6.930;2022-08-03T12:31:44;3.58;;;2.78;;
13321;SDS011;6730;46.248;6.930;2022-08-03T12:34:10;2.92;;;2.65;;
13321;SDS011;6730;46.248;6.930;2022-08-03T12:36:36;2.75;;;2.50;;
13321;SDS011;6730;46.248;6.930;2022-08-03T12:39:06;3.65;;;2.40;;
13321;SDS011;6730;46.248;6.930;2022-08-03T12:41:34;3.08;;;2.30;;
13321;SDS011;6730;46.248;6.930;2022-08-03T12:44:02;2.50;;;2.30;;
13321;SDS011;6730;46.248;6.930;2022-08-03T12:46:34;2.50;;;2.30;;
13321;SDS011;6730;46.248;6.930;2022-08-03T12:51:30;4.22;;;2.30;;
13321;SDS011;6730;46.248;6.930;2022-08-03T12:54:09;3.15;;;2.72;;
13321;SDS011;6730;46.248;6.930;2022-08-03T12:59:27;2.92;;;2.55;;
13321;SDS011;6730;46.248;6.930;2022-08-03T13:01:57;2.70;;;2.47;;
13321;SDS011;6730;46.248;6.930;2022-08-03T13:06:59;2.78;;;2.58;;
13321;SDS011;6730;46.248;6.930;2022-08-03T13:09:27;5.15;;;2.70;;
13321;SDS011;6730;46.248;6.930;2022-08-03T13:12:03;2.97;;;2.35;;
13321;SDS011;6730;46.248;6.930;2022-08-03T13:14:33;3.10;;;2.65;;
13321;SDS011;6730;46.248;6.930;2022-08-03T13:16:59;2.97;;;2.70;;
13321;SDS011;6730;46.248;6.930;2022-08-03T13:19:25;3.45;;;2.80;;
13321;SDS011;6730;46.248;6.930;2022-08-03T13:21:50;2.70;;;2.50;;
13321;SDS011;6730;46.248;6.930;2022-08-03T13:24:16;3.97;;;2.47;;
13321;SDS011;6730;46.248;6.930;2022-08-03T13:26:43;2.83;;;2.40;;
13321;SDS011;6730;46.248;6.930;2022-08-03T13:29:09;4.85;;;2.95;;
13321;SDS011;6730;46.248;6.930;2022-08-03T13:31:34;2.85;;;2.60;;
13321;SDS011;6730;46.248;6.930;2022-08-03T13:34:00;3.03;;;2.75;;
13321;SDS011;6730;46.248;6.930;2022-08-03T13:36:26;3.40;;;2.60;;
13321;SDS011;6730;46.248;6.930;2022-08-03T13:38:51;4.15;;;2.78;;
13321;SDS011;6730;46.248;6.930;2022-08-03T13:41:17;3.28;;;2.55;;
13321;SDS011;6730;46.248;6.930;2022-08-03T13:43:43;3.45;;;2.65;;
13321;SDS011;6730;46.248;6.930;2022-08-03T13:46:08;3.53;;;2.63;;
13321;SDS011;6730;46.248;6.930;2022-08-03T13:48:34;5.40;;;2.67;;
13321;SDS011;6730;46.248;6.930;2022-08-03T13:51:00;3.10;;;2.80;;
13321;SDS011;6730;46.248;6.930;2022-08-03T13:53:25;4.25;;;2.83;;
13321;SDS011;6730;46.248;6.930;2022-08-03T13:55:51;3.35;;;2.55;;
13321;SDS011;6730;46.248;6.930;2022-08-03T13:58:17;2.75;;;2.55;;
13321;SDS011;6730;46.248;6.930;2022-08-03T14:00:42;3.20;;;2.42;;
13321;SDS011;6730;46.248;6.930;2022-08-03T14:03:08;4.35;;;2.75;;
13321;SDS011;6730;46.248;6.930;2022-08-03T14:05:34;5.68;;;2.78;;
13321;SDS011;6730;46.248;6.930;2022-08-03T14:08:02;2.72;;;2.53;;
13321;SDS011;6730;46.248;6.930;2022-08-03T14:10:30;2.80;;;2.60;;
13321;SDS011;6730;46.248;6.930;2022-08-03T14:12:56;2.70;;;2.50;;
13321;SDS011;6730;46.248;6.930;2022-08-03T14:15:25;2.58;;;2.38;;
13321;SDS011;6730;46.248;6.930;2022-08-03T14:17:52;7.78;;;2.70;;
13321;SDS011;6730;46.248;6.930;2022-08-03T14:20:18;4.63;;;2.58;;
13321;SDS011;6730;46.248;6.930;2022-08-03T14:22:46;3.63;;;2.80;;
13321;SDS011;6730;46.248;6.930;2022-08-03T14:25:18;2.90;;;2.70;;
13321;SDS011;6730;46.248;6.930;2022-08-03T14:27:43;3.65;;;2.50;;
13321;SDS011;6730;46.248;6.930;2022-08-03T14:30:10;3.00;;;2.30;;
13321;SDS011;6730;46.248;6.930;2022-08-03T14:32:45;3.40;;;2.55;;
13321;SDS011;6730;46.248;6.930;2022-08-03T14:35:14;3.95;;;2.33;;
13321;SDS011;6730;46.248;6.930;2022-08-03T14:37:49;2.25;;;2.15;;
13321;SDS011;6730;46.248;6.930;2022-08-03T14:40:18;2.92;;;2.67;;
13321;SDS011;6730;46.248;6.930;2022-08-03T14:42:44;6.05;;;2.63;;
13321;SDS011;6730;46.248;6.930;2022-08-03T14:45:13;2.67;;;2.47;;
13321;SDS011;6730;46.248;6.930;2022-08-03T14:47:39;5.00;;;2.80;;
13321;SDS011;6730;46.248;6.930;2022-08-03T14:50:06;14.07;;;4.07;;
13321;SDS011;6730;46.248;6.930;2022-08-03T14:52:32;2.58;;;2.38;;
13321;SDS011;6730;46.248;6.930;2022-08-03T14:54:58;3.00;;;2.70;;
13321;SDS011;6730;46.248;6.930;2022-08-03T14:57:24;2.70;;;2.50;;
13321;SDS011;6730;46.248;6.930;2022-08-03T14:59:51;5.30;;;2.78;;
13321;SDS011;6730;46.248;6.930;2022-08-03T15:02:17;2.70;;;2.50;;
13321;SDS011;6730;46.248;6.930;2022-08-03T15:04:43;2.70;;;2.50;;
13321;SDS011;6730;46.248;6.930;2022-08-03T15:07:09;3.60;;;2.70;;
13321;SDS011;6730;46.248;6.930;2022-08-03T15:09:34;3.58;;;2.50;;
13321;SDS011;6730;46.248;6.930;2022-08-03T15:12:02;4.90;;;2.40;;
13321;SDS011;6730;46.248;6.930;2022-08-03T15:14:29;2.40;;;2.20;;
13321;SDS011;6730;46.248;6.930;2022-08-03T15:16:55;2.53;;;2.10;;
13321;SDS011;6730;46.248;6.930;2022-08-03T15:19:21;3.42;;;2.15;;
13321;SDS011;6730;46.248;6.930;2022-08-03T15:21:47;2.40;;;2.20;;
13321;SDS011;6730;46.248;6.930;2022-08-03T15:24:12;5.40;;;2.40;;
13321;SDS011;6730;46.248;6.930;2022-08-03T15:26:43;3.63;;;2.42;;
13321;SDS011;6730;46.248;6.930;2022-08-03T15:29:11;2.53;;;2.33;;
13321;SDS011;6730;46.248;6.930;2022-08-03T15:31:37;3.33;;;3.03;;
13321;SDS011;6730;46.248;6.930;2022-08-03T15:34:03;4.72;;;2.20;;
13321;SDS011;6730;46.248;6.930;2022-08-03T15:36:30;2.25;;;2.08;;
13321;SDS011;6730;46.248;6.930;2022-08-03T15:38:57;3.40;;;2.47;;
13321;SDS011;6730;46.248;6.930;2022-08-03T15:41:23;3.22;;;1.88;;
13321;SDS011;6730;46.248;6.930;2022-08-03T15:43:49;5.30;;;2.30;;
13321;SDS011;6730;46.248;6.930;2022-08-03T15:46:16;3.75;;;2.22;;
13321;SDS011;6730;46.248;6.930;2022-08-03T15:48:43;2.33;;;2.13;;
13321;SDS011;6730;46.248;6.930;2022-08-03T15:51:09;2.42;;;2.22;;
13321;SDS011;6730;46.248;6.930;2022-08-03T15:53:35;2.85;;;2.10;;
13321;SDS011;6730;46.248;6.930;2022-08-03T15:56:01;2.78;;;2.10;;
13321;SDS011;6730;46.248;6.930;2022-08-03T15:58:27;2.97;;;2.00;;
13321;SDS011;6730;46.248;6.930;2022-08-03T16:00:54;2.60;;;2.40;;
13321;SDS011;6730;46.248;6.930;2022-08-03T16:03:21;2.30;;;2.10;;
13321;SDS011;6730;46.248;6.930;2022-08-03T16:05:47;2.65;;;1.90;;